Time;durP1;ratioP1;P1;durP2;ratioP2;P2;SDS_P1;SDS_P2;PMS_P1;PMS_P2;Temp;Humidity;BMP_temperature;BMP_pressure;BME280_temperature;BME280_humidity;BME280_pressure;Samples;Min_cycle;Max_cycle;Signal;HPM_P1;HPM_P2
2022/03/02 00:01:05;;;;;;;7.15;4.30;;;2.60;1.00;;;;;;5036660;28;20479;-60
2022/03/02 00:03:32;;;;;;;7.00;3.63;;;2.50;1.00;;;;;;5050438;28;20447;-60
2022/03/02 00:06:00;;;;;;;5.53;3.88;;;2.50;1.00;;;;;;5051447;28;20487;-60
2022/03/02 00:08:27;;;;;;;6.13;3.78;;;2.60;1.00;;;;;;5052293;28;20437;-60
2022/03/02 00:10:54;;;;;;;5.80;3.70;;;2.70;1.00;;;;;;5050283;28;20436;-61
2022/03/02 00:13:21;;;;;;;7.68;3.90;;;2.80;1.00;;;;;;5052720;28;20524;-64
2022/03/02 00:15:49;;;;;;;7.18;4.00;;;2.90;1.00;;;;;;5050991;28;20437;-60
2022/03/02 00:18:16;;;;;;;7.20;4.40;;;2.90;1.00;;;;;;5033302;28;20431;-60
2022/03/02 00:20:43;;;;;;;6.97;4.80;;;2.90;1.00;;;;;;5050333;28;20459;-60
2022/03/02 00:23:12;;;;;;;7.45;4.22;;;2.80;1.00;;;;;;5046490;28;20491;-59
2022/03/02 00:25:39;;;;;;;6.00;4.18;;;2.70;1.00;;;;;;5050375;28;20499;-60
2022/03/02 00:28:06;;;;;;;6.70;4.10;;;2.60;1.00;;;;;;5057948;28;20498;-60
2022/03/02 00:30:34;;;;;;;7.32;4.00;;;2.50;1.00;;;;;;5056702;28;20495;-60
2022/03/02 00:33:01;;;;;;;4.18;3.28;;;2.50;1.00;;;;;;5058898;28;20420;-60
2022/03/02 00:35:28;;;;;;;9.15;4.65;;;2.50;1.00;;;;;;5055618;28;20729;-60
2022/03/02 00:37:55;;;;;;;6.75;4.10;;;2.60;1.00;;;;;;5058098;28;20433;-60
2022/03/02 00:40:24;;;;;;;6.25;4.57;;;2.70;1.00;;;;;;5057083;28;20869;-60
2022/03/02 00:42:51;;;;;;;5.65;3.40;;;2.70;1.00;;;;;;5057739;28;20864;-60
2022/03/02 00:45:18;;;;;;;7.20;3.75;;;2.80;1.00;;;;;;5054722;28;20436;-60
2022/03/02 00:47:46;;;;;;;6.22;4.00;;;2.90;1.00;;;;;;5058259;28;20776;-60
2022/03/02 00:50:14;;;;;;;8.10;4.93;;;3.00;1.00;;;;;;5045950;28;20797;-60
2022/03/02 00:52:42;;;;;;;6.80;4.30;;;3.10;1.00;;;;;;5046512;28;20464;-61
2022/03/02 00:55:09;;;;;;;5.43;3.40;;;3.10;1.00;;;;;;5056826;28;20425;-59
2022/03/02 00:57:38;;;;;;;8.05;4.35;;;3.20;1.00;;;;;;5058369;28;20438;-60
2022/03/02 01:00:06;;;;;;;5.80;3.90;;;3.10;1.00;;;;;;5047311;28;20422;-60
2022/03/02 01:02:33;;;;;;;7.93;4.53;;;3.10;1.00;;;;;;5047025;28;20445;-60
2022/03/02 01:05:00;;;;;;;6.97;4.43;;;3.00;1.00;;;;;;5057190;28;20425;-60
2022/03/02 01:07:27;;;;;;;4.90;4.07;;;2.90;1.00;;;;;;5058004;28;20425;-60
2022/03/02 01:09:54;;;;;;;6.05;3.80;;;2.90;1.00;;;;;;5041117;28;20425;-60
2022/03/02 01:12:21;;;;;;;4.88;4.13;;;2.80;1.00;;;;;;5057348;28;20437;-60
2022/03/02 01:14:50;;;;;;;6.00;4.10;;;2.80;1.00;;;;;;5053168;28;20426;-60
2022/03/02 01:17:17;;;;;;;5.97;4.20;;;2.70;1.00;;;;;;5057949;28;20506;-60
2022/03/02 01:19:44;;;;;;;5.32;3.83;;;2.80;1.00;;;;;;5057601;28;20432;-60
2022/03/02 01:22:11;;;;;;;7.30;4.60;;;2.90;1.00;;;;;;5057413;28;20433;-60
2022/03/02 01:24:38;;;;;;;5.95;3.80;;;2.90;1.00;;;;;;5057489;28;20425;-60
2022/03/02 01:27:05;;;;;;;5.97;3.55;;;2.90;1.00;;;;;;5057487;28;20429;-60
2022/03/02 01:29:34;;;;;;;5.28;3.30;;;3.00;1.00;;;;;;5056945;28;20426;-60
2022/03/02 01:32:06;;;;;;;6.97;4.10;;;3.10;1.00;;;;;;5056632;28;20437;-60
2022/03/02 01:34:33;;;;;;;6.60;4.20;;;3.20;1.00;;;;;;5037827;28;20441;-60
2022/03/02 01:37:00;;;;;;;5.65;3.78;;;3.20;1.00;;;;;;5036212;28;20801;-60
2022/03/02 01:39:27;;;;;;;7.70;3.63;;;3.30;1.00;;;;;;5037835;28;20422;-60
2022/03/02 01:41:54;;;;;;;7.45;4.72;;;3.20;1.00;;;;;;5054362;28;20433;-60
2022/03/02 01:44:23;;;;;;;6.65;3.55;;;3.10;1.00;;;;;;5056517;28;20470;-60
2022/03/02 01:46:50;;;;;;;6.90;3.75;;;3.10;1.00;;;;;;5054001;28;20513;-60
2022/03/02 01:49:19;;;;;;;7.57;4.05;;;3.20;1.00;;;;;;5040687;28;20818;-60
2022/03/02 01:51:46;;;;;;;8.00;4.25;;;3.30;1.00;;;;;;5054440;28;20441;-60
2022/03/02 01:54:14;;;;;;;5.32;3.58;;;3.40;1.00;;;;;;5037164;28;20427;-59
2022/03/02 01:56:41;;;;;;;6.00;4.10;;;3.20;1.00;;;;;;5051614;28;20441;-59
2022/03/02 01:59:08;;;;;;;8.00;3.83;;;3.20;1.00;;;;;;5053956;28;20489;-58
2022/03/02 02:01:35;;;;;;;7.95;4.75;;;3.20;1.00;;;;;;5056130;28;20437;-60
2022/03/02 02:04:03;;;;;;;7.85;3.50;;;3.10;1.00;;;;;;5057333;28;20421;-59
2022/03/02 02:06:32;;;;;;;6.03;4.50;;;3.20;1.00;;;;;;5057407;28;20569;-59
2022/03/02 02:08:59;;;;;;;6.80;4.32;;;3.10;1.00;;;;;;5047785;28;20433;-59
2022/03/02 02:11:27;;;;;;;7.35;4.50;;;3.00;1.00;;;;;;5056701;28;20733;-59
2022/03/02 02:13:54;;;;;;;6.43;3.97;;;2.80;1.00;;;;;;5056066;28;20498;-59
2022/03/02 02:16:22;;;;;;;9.57;4.60;;;2.60;1.00;;;;;;5056938;28;20421;-60
2022/03/02 02:18:50;;;;;;;8.07;4.20;;;2.40;1.00;;;;;;5055166;28;20787;-59
2022/03/02 02:21:20;;;;;;;7.05;4.57;;;2.30;1.00;;;;;;5055021;28;20413;-59
2022/03/02 02:23:47;;;;;;;6.90;3.70;;;2.20;1.00;;;;;;5035674;28;20437;-58
2022/03/02 02:26:14;;;;;;;6.93;3.78;;;2.10;1.00;;;;;;5038606;28;20436;-59
2022/03/02 02:28:42;;;;;;;6.65;4.50;;;2.10;1.00;;;;;;5055515;28;20490;-59
2022/03/02 02:31:09;;;;;;;5.95;3.97;;;2.10;1.00;;;;;;5054598;28;20433;-58
2022/03/02 02:33:36;;;;;;;7.55;3.83;;;2.10;1.00;;;;;;5055328;28;20479;-59
2022/03/02 02:36:05;;;;;;;8.02;4.40;;;2.10;1.00;;;;;;5055213;28;21772;-59
2022/03/02 02:38:33;;;;;;;6.18;3.70;;;2.20;1.00;;;;;;5056280;28;20414;-60
2022/03/02 02:41:00;;;;;;;6.97;4.30;;;2.20;1.00;;;;;;5054484;28;20476;-59
2022/03/02 02:43:27;;;;;;;9.02;4.30;;;2.30;1.00;;;;;;5056579;28;20710;-58
2022/03/02 02:45:55;;;;;;;6.50;4.10;;;2.10;1.00;;;;;;5051833;28;20431;-59
2022/03/02 02:48:22;;;;;;;5.55;3.63;;;2.10;1.00;;;;;;5056179;28;20425;-59
2022/03/02 02:50:49;;;;;;;5.28;3.45;;;2.10;1.00;;;;;;5051362;28;20435;-58
2022/03/02 02:53:17;;;;;;;5.60;3.67;;;2.00;1.00;;;;;;5037682;28;20830;-59
2022/03/02 02:55:46;;;;;;;5.20;3.63;;;2.00;1.00;;;;;;5052176;28;20858;-59
2022/03/02 02:58:13;;;;;;;5.40;3.90;;;2.00;1.00;;;;;;5036241;28;20431;-59
2022/03/02 03:00:43;;;;;;;7.10;3.60;;;2.00;1.00;;;;;;5038839;28;20449;-59
2022/03/02 03:03:10;;;;;;;7.13;4.45;;;2.10;1.00;;;;;;5055461;28;20511;-59
2022/03/02 03:05:37;;;;;;;5.22;4.13;;;2.20;1.00;;;;;;5053983;28;20425;-59
2022/03/02 03:08:07;;;;;;;7.50;4.50;;;2.20;1.00;;;;;;5054870;28;20907;-59
2022/03/02 03:10:34;;;;;;;8.85;5.10;;;2.30;1.00;;;;;;5045775;28;20867;-58
2022/03/02 03:13:03;;;;;;;6.80;4.20;;;2.30;1.00;;;;;;5050853;28;20429;-59
2022/03/02 03:15:34;;;;;;;5.73;3.57;;;2.20;1.00;;;;;;5054551;28;20429;-61
2022/03/02 03:18:04;;;;;;;7.20;4.53;;;2.10;1.00;;;;;;5054972;28;20802;-60
2022/03/02 03:20:32;;;;;;;8.90;4.40;;;2.10;1.00;;;;;;5050165;28;20513;-59
2022/03/02 03:23:00;;;;;;;7.17;4.57;;;2.00;1.00;;;;;;5055341;28;20495;-60
2022/03/02 03:25:28;;;;;;;6.80;3.92;;;1.90;1.00;;;;;;5054518;28;20425;-60
2022/03/02 03:27:56;;;;;;;7.45;4.30;;;2.00;1.00;;;;;;5055787;28;20469;-60
2022/03/02 03:30:26;;;;;;;7.00;4.30;;;2.10;1.00;;;;;;5047255;28;20473;-60
2022/03/02 03:32:54;;;;;;;7.32;4.45;;;2.10;1.00;;;;;;5035279;28;20747;-60
2022/03/02 03:35:22;;;;;;;6.75;4.57;;;2.00;1.00;;;;;;5047174;28;20433;-60
2022/03/02 03:37:50;;;;;;;6.55;4.95;;;2.00;1.00;;;;;;5055603;28;20849;-60
2022/03/02 03:40:19;;;;;;;9.27;4.82;;;1.90;1.00;;;;;;5054662;28;20429;-61
2022/03/02 03:42:46;;;;;;;6.65;4.07;;;1.80;1.00;;;;;;5055886;28;20487;-60
2022/03/02 03:45:14;;;;;;;7.97;4.50;;;1.80;1.00;;;;;;5054885;28;20437;-60
2022/03/02 03:47:43;;;;;;;9.27;4.70;;;1.70;1.00;;;;;;5054377;28;20515;-61
2022/03/02 03:50:12;;;;;;;7.90;4.32;;;1.80;1.00;;;;;;5055247;28;20444;-60
2022/03/02 03:52:39;;;;;;;7.45;4.80;;;1.80;1.00;;;;;;5053598;28;20437;-60
2022/03/02 03:55:08;;;;;;;6.95;4.28;;;1.80;1.00;;;;;;5046245;28;20427;-60
2022/03/02 03:57:35;;;;;;;8.70;4.80;;;1.80;1.00;;;;;;5043918;28;20820;-59
2022/03/02 04:00:04;;;;;;;8.65;4.38;;;1.80;1.00;;;;;;5054207;28;20455;-60
2022/03/02 04:02:31;;;;;;;9.73;5.13;;;1.90;1.00;;;;;;5050786;28;20485;-59
2022/03/02 04:05:00;;;;;;;8.05;4.13;;;1.70;1.00;;;;;;5034930;28;20915;-60
2022/03/02 04:07:27;;;;;;;7.80;4.20;;;1.70;1.00;;;;;;5050698;28;20441;-60
2022/03/02 04:09:54;;;;;;;8.02;4.22;;;1.70;1.00;;;;;;5054895;28;20426;-61
2022/03/02 04:12:21;;;;;;;8.25;4.30;;;1.60;1.00;;;;;;5042003;28;20499;-60
2022/03/02 04:14:48;;;;;;;7.28;4.18;;;1.60;1.00;;;;;;5038602;28;20484;-59
2022/03/02 04:17:15;;;;;;;6.65;4.10;;;1.70;1.00;;;;;;5053040;28;20494;-60
2022/03/02 04:19:42;;;;;;;7.28;4.03;;;1.70;1.00;;;;;;5054037;28;20421;-60
2022/03/02 04:22:10;;;;;;;5.75;3.60;;;1.80;1.00;;;;;;5042895;28;20936;-60
2022/03/02 04:24:38;;;;;;;6.75;4.35;;;1.80;1.00;;;;;;5043946;28;20860;-60
2022/03/02 04:27:05;;;;;;;7.80;4.15;;;1.80;1.00;;;;;;5052939;28;20429;-60
2022/03/02 04:29:33;;;;;;;5.43;3.75;;;1.80;1.00;;;;;;5053197;28;20417;-60
2022/03/02 04:32:00;;;;;;;6.47;4.00;;;1.80;1.00;;;;;;5044981;28;20433;-60
2022/03/02 04:34:27;;;;;;;8.20;4.32;;;1.80;1.00;;;;;;5055097;28;20452;-60
2022/03/02 04:36:54;;;;;;;6.50;4.30;;;1.80;1.00;;;;;;5047585;28;20431;-59
2022/03/02 04:39:23;;;;;;;6.90;3.95;;;1.70;1.00;;;;;;5053140;28;20797;-60
2022/03/02 04:41:50;;;;;;;6.00;4.10;;;1.60;1.00;;;;;;5054328;28;20503;-60
2022/03/02 04:44:17;;;;;;;5.90;3.90;;;1.50;1.00;;;;;;5052956;28;20551;-60
2022/03/02 04:46:48;;;;;;;6.87;4.30;;;1.40;1.00;;;;;;5054830;28;20457;-60
2022/03/02 04:49:18;;;;;;;7.22;4.32;;;1.50;1.00;;;;;;5046982;28;20446;-60
2022/03/02 04:51:46;;;;;;;5.87;3.90;;;1.60;1.00;;;;;;5044643;28;20440;-60
2022/03/02 04:55:05;;;;;;;7.93;4.10;;;1.60;1.00;;;;;;5053963;28;20425;-59
2022/03/02 04:57:04;;;;;;;5.63;3.85;;;1.60;1.00;;;;;;5053198;28;20421;-60
2022/03/02 04:59:32;;;;;;;5.72;3.67;;;1.60;1.00;;;;;;5053147;28;20429;-60
2022/03/02 05:01:59;;;;;;;7.80;5.25;;;1.70;1.00;;;;;;5053670;28;20429;-59
2022/03/02 05:04:26;;;;;;;7.65;3.40;;;1.60;1.00;;;;;;5051815;28;20430;-59
2022/03/02 05:06:54;;;;;;;7.72;4.35;;;1.60;1.00;;;;;;5053268;28;20429;-60
2022/03/02 05:09:21;;;;;;;7.03;4.65;;;1.60;1.00;;;;;;5046262;28;20429;-59
2022/03/02 05:11:47;;;;;;;7.18;4.05;;;1.40;1.00;;;;;;5055746;28;20437;-59
2022/03/02 05:14:16;;;;;;;7.17;4.20;;;1.20;1.00;;;;;;5043869;28;20481;-59
2022/03/02 05:16:43;;;;;;;6.40;5.10;;;1.10;1.00;;;;;;5037610;28;20434;-59
2022/03/02 05:19:10;;;;;;;7.07;4.50;;;1.10;1.00;;;;;;5039310;28;20430;-59
2022/03/02 05:21:37;;;;;;;6.95;3.80;;;1.00;1.00;;;;;;5037898;28;20470;-59
2022/03/02 05:24:05;;;;;;;7.05;3.80;;;1.00;1.00;;;;;;5038755;28;20525;-59
2022/03/02 05:26:33;;;;;;;8.30;4.22;;;1.00;1.00;;;;;;5039711;28;20914;-58
2022/03/02 05:29:00;;;;;;;4.72;3.30;;;1.10;1.00;;;;;;5057113;28;20425;-59
2022/03/02 05:31:30;;;;;;;6.10;4.03;;;1.10;1.00;;;;;;5056152;28;20742;-59
2022/03/02 05:33:57;;;;;;;7.72;3.50;;;1.20;1.00;;;;;;5057477;28;20490;-59
2022/03/02 05:36:24;;;;;;;8.80;4.70;;;1.20;1.00;;;;;;5052451;28;20440;-59
2022/03/02 05:38:51;;;;;;;10.13;4.80;;;1.30;1.00;;;;;;5037907;28;20430;-59
2022/03/02 05:41:18;;;;;;;6.95;4.38;;;1.40;1.00;;;;;;5040688;28;20478;-60
2022/03/02 05:43:45;;;;;;;7.33;4.60;;;1.50;1.00;;;;;;5036967;28;20445;-60
2022/03/02 05:46:12;;;;;;;6.78;4.40;;;1.60;1.00;;;;;;5047961;28;20496;-60
2022/03/02 05:48:41;;;;;;;6.90;4.15;;;1.50;1.00;;;;;;5056223;28;20421;-60
2022/03/02 05:51:08;;;;;;;7.00;5.00;;;1.60;1.00;;;;;;5046085;28;20798;-59
2022/03/02 05:53:35;;;;;;;5.57;4.13;;;1.60;1.00;;;;;;5037827;28;20443;-59
2022/03/02 05:56:02;;;;;;;7.32;4.20;;;1.70;1.00;;;;;;5055820;28;20429;-59
2022/03/02 05:58:29;;;;;;;5.63;4.57;;;1.70;1.00;;;;;;5053654;28;20425;-59
2022/03/02 06:00:56;;;;;;;7.13;4.10;;;1.70;1.00;;;;;;5056305;28;20457;-61
2022/03/02 06:03:23;;;;;;;5.70;3.90;;;1.70;1.00;;;;;;5055584;28;20469;-60
2022/03/02 06:05:52;;;;;;;7.97;4.60;;;1.70;1.00;;;;;;5055675;28;20421;-60
2022/03/02 06:08:19;;;;;;;8.00;4.63;;;1.70;1.00;;;;;;5053453;28;20939;-59
2022/03/02 06:10:48;;;;;;;6.53;4.03;;;1.70;1.00;;;;;;5054942;28;20429;-59
2022/03/02 06:13:15;;;;;;;7.85;4.28;;;1.60;1.00;;;;;;5048481;28;20439;-60
2022/03/02 06:15:43;;;;;;;7.55;4.60;;;1.60;1.00;;;;;;5036372;28;20472;-59
2022/03/02 06:18:10;;;;;;;7.97;4.53;;;1.60;1.00;;;;;;5035671;28;20504;-59
2022/03/02 06:20:38;;;;;;;7.45;3.70;;;1.60;1.00;;;;;;5036614;28;20423;-60
2022/03/02 06:23:06;;;;;;;8.05;5.30;;;1.70;1.00;;;;;;5039155;28;20438;-59
2022/03/02 06:25:34;;;;;;;7.57;4.70;;;1.60;1.00;;;;;;5036303;28;20434;-57
2022/03/02 06:28:01;;;;;;;9.07;5.90;;;1.60;1.00;;;;;;5050920;28;20494;-60
2022/03/02 06:30:28;;;;;;;6.15;4.35;;;1.60;1.00;;;;;;5054321;28;21028;-59
2022/03/02 06:32:55;;;;;;;8.00;5.15;;;1.70;1.00;;;;;;5036279;28;20497;-59
2022/03/02 06:35:22;;;;;;;5.40;4.10;;;1.70;1.00;;;;;;5034531;28;20439;-59
2022/03/02 06:37:49;;;;;;;6.50;4.22;;;1.80;1.00;;;;;;5051627;28;20491;-59
2022/03/02 06:40:17;;;;;;;7.47;4.68;;;1.70;1.00;;;;;;5053542;28;20490;-59
2022/03/02 06:42:59;;;;;;;7.70;4.03;;;1.70;1.00;;;;;;5037187;28;20497;-58
2022/03/02 06:45:33;;;;;;;6.90;4.20;;;1.90;1.00;;;;;;5035717;28;20467;-59
2022/03/02 06:48:08;;;;;;;6.43;4.28;;;2.10;1.00;;;;;;5039016;28;20868;-59
2022/03/02 06:50:39;;;;;;;7.65;5.03;;;2.20;1.00;;;;;;5050871;28;20463;-59
2022/03/02 06:53:12;;;;;;;5.63;3.78;;;2.20;1.00;;;;;;5047598;28;20440;-59
2022/03/02 06:55:42;;;;;;;6.05;3.55;;;2.40;1.00;;;;;;5052108;28;20429;-60
2022/03/02 06:58:12;;;;;;;5.20;3.70;;;2.70;1.00;;;;;;5050964;28;20995;-60
2022/03/02 07:00:40;;;;;;;8.82;5.15;;;2.90;1.00;;;;;;5050976;28;20428;-59
2022/03/02 07:03:09;;;;;;;6.43;4.35;;;2.80;1.00;;;;;;5044613;28;20425;-59
2022/03/02 07:05:39;;;;;;;7.07;4.55;;;2.70;1.00;;;;;;5051233;28;20427;-61
2022/03/02 07:08:08;;;;;;;9.00;5.10;;;3.10;1.00;;;;;;5049592;28;20936;-59
2022/03/02 07:10:36;;;;;;;6.50;4.07;;;3.30;1.00;;;;;;5052041;28;20537;-59
2022/03/02 07:13:06;;;;;;;8.07;5.13;;;3.90;1.00;;;;;;5045921;28;20895;-60
2022/03/02 07:15:34;;;;;;;8.68;5.70;;;3.70;1.00;;;;;;5041016;28;20434;-60
2022/03/02 07:18:02;;;;;;;9.50;6.60;;;3.60;1.00;;;;;;5052328;28;20491;-60
2022/03/02 07:20:30;;;;;;;6.60;4.80;;;3.30;1.00;;;;;;5053157;28;20938;-60
2022/03/02 07:22:58;;;;;;;9.88;5.78;;;3.30;1.00;;;;;;5052880;28;20475;-60
2022/03/02 07:25:29;;;;;;;7.45;4.70;;;3.80;1.00;;;;;;5046589;28;20424;-60
2022/03/02 07:27:58;;;;;;;9.87;5.20;;;3.80;1.00;;;;;;5047125;28;20931;-60
2022/03/02 07:30:28;;;;;;;8.13;4.97;;;4.20;1.00;;;;;;5048237;28;20425;-60
2022/03/02 07:32:58;;;;;;;9.23;5.05;;;3.60;1.00;;;;;;5054018;28;20429;-60
2022/03/02 07:35:25;;;;;;;7.78;5.60;;;3.20;1.00;;;;;;5053850;28;20425;-60
2022/03/02 07:37:55;;;;;;;7.65;5.20;;;3.10;1.00;;;;;;5054297;28;20508;-60
2022/03/02 07:40:22;;;;;;;7.50;4.63;;;3.00;1.00;;;;;;5053339;28;20437;-60
2022/03/02 07:42:50;;;;;;;9.40;5.50;;;2.90;1.00;;;;;;5051982;28;20505;-60
2022/03/02 07:45:17;;;;;;;8.68;5.80;;;2.90;1.00;;;;;;5034552;28;20427;-60
2022/03/02 07:47:47;;;;;;;7.30;5.63;;;2.80;1.00;;;;;;5033287;28;20434;-61
2022/03/02 07:50:15;;;;;;;9.15;5.93;;;2.70;1.00;;;;;;5031545;28;20431;-59
2022/03/02 07:52:51;;;;;;;12.88;6.40;;;3.20;1.00;;;;;;5021493;28;20445;-60
2022/03/02 07:55:19;;;;;;;10.05;5.50;;;3.50;1.00;;;;;;5023190;28;20442;-60
2022/03/02 07:57:51;;;;;;;9.32;5.38;;;3.60;1.00;;;;;;5032164;28;20458;-60
2022/03/02 08:00:18;;;;;;;8.90;5.15;;;3.30;1.00;;;;;;5023120;28;20430;-60
2022/03/02 08:02:49;;;;;;;8.77;5.22;;;3.20;1.00;;;;;;5030067;28;20427;-60
2022/03/02 08:05:16;;;;;;;12.77;6.70;;;3.30;1.00;;;;;;5032468;28;20488;-59
2022/03/02 08:07:44;;;;;;;10.13;5.60;;;3.20;1.00;;;;;;5024505;28;20431;-59
2022/03/02 08:10:15;;;;;;;8.98;5.50;;;3.10;1.00;;;;;;5032406;28;20524;-58
2022/03/02 08:12:43;;;;;;;9.15;5.85;;;2.90;1.00;;;;;;5031401;28;20478;-59
2022/03/02 08:15:11;;;;;;;9.43;4.93;;;2.90;1.00;;;;;;5031557;28;20684;-59
2022/03/02 08:17:38;;;;;;;9.45;6.25;;;3.00;1.00;;;;;;5029073;28;20439;-59
2022/03/02 08:20:08;;;;;;;10.27;6.40;;;2.90;1.00;;;;;;5027258;28;20454;-59
2022/03/02 08:22:38;;;;;;;8.90;6.07;;;3.00;1.00;;;;;;5022159;28;20469;-59
2022/03/02 08:25:10;;;;;;;12.60;6.40;;;3.00;1.00;;;;;;5032965;28;21018;-59
2022/03/02 08:27:39;;;;;;;8.13;5.53;;;3.20;1.00;;;;;;5023516;28;20939;-60
2022/03/02 08:30:07;;;;;;;8.97;6.50;;;3.40;1.00;;;;;;5029198;28;20425;-61
2022/03/02 08:32:37;;;;;;;11.80;7.03;;;3.50;1.00;;;;;;5033107;28;20439;-61
2022/03/02 08:35:07;;;;;;;10.57;6.72;;;3.40;1.00;;;;;;5034273;28;20416;-61
2022/03/02 08:37:35;;;;;;;11.20;6.07;;;3.60;1.00;;;;;;5038509;28;20929;-61
2022/03/02 08:40:03;;;;;;;11.65;7.05;;;4.10;1.00;;;;;;5029073;28;20427;-60
2022/03/02 08:42:31;;;;;;;10.50;6.70;;;4.10;1.00;;;;;;5029364;28;21047;-60
2022/03/02 08:44:58;;;;;;;11.25;7.55;;;4.10;1.00;;;;;;5043542;28;20425;-60
2022/03/02 08:47:25;;;;;;;10.60;6.72;;;4.10;1.00;;;;;;5050262;28;20494;-57
2022/03/02 08:49:54;;;;;;;11.88;7.75;;;4.10;1.00;;;;;;5058083;28;20435;-59
2022/03/02 08:52:26;;;;;;;12.50;7.43;;;4.20;1.00;;;;;;5062801;28;20429;-60
2022/03/02 08:54:56;;;;;;;9.50;6.30;;;4.50;1.00;;;;;;5059171;28;20427;-61
2022/03/02 08:57:24;;;;;;;6.93;5.93;;;4.80;1.00;;;;;;5054234;28;20464;-60
2022/03/02 08:59:53;;;;;;;9.07;6.63;;;5.40;1.00;;;;;;5053934;28;20425;-60
2022/03/02 09:02:22;;;;;;;9.18;6.03;;;5.70;1.00;;;;;;5057887;28;20524;-60
2022/03/02 09:04:50;;;;;;;10.53;6.73;;;5.80;1.00;;;;;;5056543;28;21164;-61
2022/03/02 09:07:21;;;;;;;8.63;6.13;;;6.10;1.00;;;;;;5058553;28;20491;-60
2022/03/02 09:09:49;;;;;;;9.30;7.97;;;6.10;1.00;;;;;;5056419;28;20832;-60
2022/03/02 09:12:16;;;;;;;9.13;7.15;;;5.80;1.00;;;;;;5051488;28;20449;-60
2022/03/02 09:14:43;;;;;;;10.00;7.40;;;5.80;1.00;;;;;;5053061;28;20440;-60
2022/03/02 09:17:11;;;;;;;14.05;9.30;;;5.90;1.00;;;;;;5049108;28;21056;-60
2022/03/02 09:19:39;;;;;;;11.98;8.18;;;6.20;1.00;;;;;;5048876;28;21059;-60
2022/03/02 09:22:06;;;;;;;11.00;6.93;;;6.50;1.00;;;;;;5053731;28;20494;-60
2022/03/02 09:24:34;;;;;;;8.63;7.55;;;6.70;1.00;;;;;;5054564;28;20467;-61
2022/03/02 09:27:03;;;;;;;10.38;7.93;;;7.00;1.00;;;;;;5059794;28;21024;-60
2022/03/02 09:29:32;;;;;;;11.82;7.10;;;7.20;1.00;;;;;;5058859;28;20527;-60
2022/03/02 09:32:00;;;;;;;10.23;7.50;;;7.40;1.00;;;;;;5053552;28;20425;-60
2022/03/02 09:34:29;;;;;;;12.38;7.63;;;7.50;1.00;;;;;;5055066;28;20456;-61
2022/03/02 09:36:57;;;;;;;11.80;7.38;;;7.40;1.00;;;;;;5053924;28;20429;-62
2022/03/02 09:39:25;;;;;;;8.20;6.72;;;7.20;1.00;;;;;;5052304;28;20425;-61
2022/03/02 09:42:01;;;;;;;12.10;7.70;;;6.90;1.00;;;;;;5054693;28;20796;-62
2022/03/02 09:44:40;;;;;;;9.18;7.13;;;6.60;1.00;;;;;;5054465;28;20437;-61
2022/03/02 09:47:10;;;;;;;9.77;6.38;;;6.30;1.00;;;;;;5056465;28;20425;-62
2022/03/02 09:49:40;;;;;;;9.30;6.70;;;6.00;1.00;;;;;;5054154;28;20425;-61
2022/03/02 09:52:09;;;;;;;9.70;5.35;;;5.80;1.00;;;;;;5055985;28;20429;-61
2022/03/02 09:54:38;;;;;;;6.93;4.60;;;5.80;1.00;;;;;;5054080;28;20429;-61
2022/03/02 09:57:07;;;;;;;11.38;6.78;;;5.90;1.00;;;;;;5053872;28;20437;-61
2022/03/02 09:59:38;;;;;;;9.80;5.78;;;6.10;1.00;;;;;;5054085;28;20461;-59
2022/03/02 10:02:07;;;;;;;7.15;5.35;;;6.00;1.00;;;;;;5055593;28;20736;-60
2022/03/02 10:04:36;;;;;;;10.73;6.53;;;6.00;1.00;;;;;;5052880;28;20784;-60
2022/03/02 10:10:05;;;;;;;13.30;6.43;;;6.40;1.00;;;;;;5054728;28;20499;-59
2022/03/02 10:12:32;;;;;;;5.93;5.22;;;6.30;1.00;;;;;;5048580;28;20426;-58
2022/03/02 10:15:01;;;;;;;9.60;5.45;;;6.40;1.00;;;;;;5049215;28;20437;-59
2022/03/02 10:17:33;;;;;;;8.80;5.57;;;6.60;1.00;;;;;;5050568;28;20740;-59
2022/03/02 10:20:06;;;;;;;8.07;5.53;;;6.80;1.00;;;;;;5049801;28;20433;-59
2022/03/02 10:23:04;;;;;;;8.90;5.77;;;6.70;1.00;;;;;;5047377;28;20442;-59
2022/03/02 10:25:53;;;;;;;9.02;5.85;;;6.90;1.00;;;;;;5046445;28;20421;-60
2022/03/02 10:28:27;;;;;;;9.80;5.20;;;7.30;1.00;;;;;;5044736;28;20433;-60
2022/03/02 10:31:14;;;;;;;7.50;4.80;;;7.50;1.00;;;;;;5051945;28;20433;-62
2022/03/02 10:33:52;;;;;;;8.18;6.45;;;7.90;1.00;;;;;;5050461;28;20429;-60
2022/03/02 10:36:21;;;;;;;8.45;5.13;;;8.00;1.00;;;;;;5051495;28;20545;-61
2022/03/02 10:38:56;;;;;;;6.75;4.38;;;7.90;1.00;;;;;;5049497;28;20427;-61
2022/03/02 10:41:23;;;;;;;7.45;4.78;;;7.80;1.00;;;;;;5047344;28;20465;-60
2022/03/02 10:43:57;;;;;;;6.80;4.50;;;7.80;1.00;;;;;;5052350;28;20463;-60
2022/03/02 10:46:27;;;;;;;7.50;5.00;;;7.60;1.00;;;;;;5053459;28;20511;-60
2022/03/02 10:49:04;;;;;;;7.65;4.50;;;7.50;1.00;;;;;;5053112;28;20481;-60
2022/03/02 10:51:32;;;;;;;7.55;4.30;;;7.60;1.00;;;;;;5051837;28;20433;-60
2022/03/02 10:54:17;;;;;;;6.50;3.87;;;7.80;1.00;;;;;;5055736;28;20482;-61
2022/03/02 10:56:45;;;;;;;6.00;4.05;;;7.90;1.00;;;;;;5054442;28;20840;-61
2022/03/02 10:59:16;;;;;;;8.57;4.83;;;7.80;1.00;;;;;;5050218;28;20935;-62
2022/03/02 11:01:46;;;;;;;7.68;5.65;;;7.60;1.00;;;;;;5050848;28;20438;-61
2022/03/02 11:04:14;;;;;;;7.05;4.65;;;7.40;1.00;;;;;;5051794;28;20424;-63
2022/03/02 11:06:42;;;;;;;9.05;5.25;;;7.70;1.00;;;;;;5052160;28;20439;-62
2022/03/02 11:09:10;;;;;;;9.35;5.60;;;8.10;1.00;;;;;;5051308;28;20802;-63
2022/03/02 11:11:37;;;;;;;7.55;5.47;;;8.40;1.00;;;;;;5051536;28;20935;-63
2022/03/02 11:14:05;;;;;;;9.23;5.70;;;8.50;1.00;;;;;;5052249;28;20490;-63
2022/03/02 11:16:32;;;;;;;7.27;5.70;;;8.40;1.00;;;;;;5051194;28;20558;-64
2022/03/02 11:19:13;;;;;;;8.13;6.70;;;8.50;1.00;;;;;;5052868;28;20455;-61
2022/03/02 11:21:41;;;;;;;9.43;7.17;;;8.60;1.00;;;;;;5051754;28;20437;-63
2022/03/02 11:24:10;;;;;;;9.02;6.55;;;8.30;1.00;;;;;;5052975;28;20425;-63
2022/03/02 11:26:39;;;;;;;9.30;6.90;;;8.40;1.00;;;;;;5053283;28;20864;-62
2022/03/02 11:29:11;;;;;;;9.88;6.35;;;8.50;1.00;;;;;;5049651;28;20425;-58
2022/03/02 11:31:41;;;;;;;8.35;5.47;;;8.40;1.00;;;;;;5045866;28;20539;-62
2022/03/02 11:34:12;;;;;;;8.15;5.57;;;8.80;1.00;;;;;;5051478;28;20514;-63
2022/03/02 11:36:41;;;;;;;8.90;6.32;;;9.10;1.00;;;;;;5052382;28;20436;-63
2022/03/02 11:39:10;;;;;;;10.07;6.87;;;9.20;1.00;;;;;;5052671;28;20459;-63
2022/03/02 11:41:39;;;;;;;7.75;6.72;;;9.00;1.00;;;;;;5044768;28;20495;-63
2022/03/02 11:44:26;;;;;;;9.90;6.70;;;8.80;1.00;;;;;;5051032;28;20841;-63
2022/03/02 11:46:53;;;;;;;11.00;7.07;;;8.80;1.00;;;;;;5049129;28;20498;-64
2022/03/02 11:49:21;;;;;;;7.07;5.78;;;8.80;1.00;;;;;;5048656;28;20936;-63
2022/03/02 11:52:05;;;;;;;7.85;6.00;;;8.70;1.00;;;;;;5058469;28;20437;-63
2022/03/02 11:54:46;;;;;;;7.65;5.70;;;8.70;1.00;;;;;;5051029;28;20425;-63
2022/03/02 11:57:19;;;;;;;8.23;5.63;;;9.00;1.00;;;;;;5048185;28;20487;-64
2022/03/02 11:59:47;;;;;;;8.55;6.35;;;8.70;1.00;;;;;;5054049;28;20429;-64
2022/03/02 12:02:16;;;;;;;7.40;4.97;;;8.40;1.00;;;;;;5048880;28;20528;-65
2022/03/02 12:04:59;;;;;;;9.23;6.10;;;8.60;1.00;;;;;;5050290;28;20512;-63
2022/03/02 12:07:26;;;;;;;9.02;5.10;;;8.90;1.00;;;;;;5050662;28;20906;-63
2022/03/02 12:09:53;;;;;;;9.00;5.80;;;9.20;1.00;;;;;;5045014;28;20427;-63
2022/03/02 12:12:22;;;;;;;7.90;6.10;;;9.20;1.00;;;;;;5051986;28;20511;-63
2022/03/02 12:14:52;;;;;;;7.68;5.75;;;9.00;1.00;;;;;;5054680;28;20465;-63
2022/03/02 12:17:21;;;;;;;7.35;4.60;;;9.00;1.00;;;;;;5053291;28;20440;-63
2022/03/02 12:19:51;;;;;;;8.93;4.40;;;9.10;1.00;;;;;;5049734;28;20827;-63
2022/03/02 12:22:21;;;;;;;6.97;4.65;;;9.40;1.00;;;;;;5050739;28;20451;-63
2022/03/02 12:24:51;;;;;;;6.35;3.90;;;9.40;1.00;;;;;;5050046;28;20895;-63
2022/03/02 12:27:19;;;;;;;6.28;4.53;;;9.80;1.00;;;;;;5049526;28;20829;-63
2022/03/02 12:29:54;;;;;;;7.43;5.90;;;10.10;1.00;;;;;;5047577;28;20437;-63
2022/03/02 12:32:22;;;;;;;7.32;5.55;;;9.80;1.00;;;;;;5048275;28;20441;-63
2022/03/02 12:34:51;;;;;;;7.20;4.78;;;9.60;1.00;;;;;;5050642;28;20480;-63
2022/03/02 12:37:22;;;;;;;8.75;6.30;;;9.50;1.00;;;;;;5050457;28;20440;-63
2022/03/02 12:39:49;;;;;;;7.93;5.60;;;9.50;1.00;;;;;;5044369;28;20426;-65
2022/03/02 12:42:17;;;;;;;8.93;5.50;;;9.80;1.00;;;;;;5048757;28;20792;-64
2022/03/02 12:44:46;;;;;;;7.95;4.43;;;10.10;1.00;;;;;;5044341;28;20857;-64
2022/03/02 12:47:17;;;;;;;10.05;6.18;;;10.20;1.00;;;;;;5046532;28;20433;-64
2022/03/02 12:49:45;;;;;;;12.27;6.20;;;10.20;1.00;;;;;;5051037;28;20900;-63
2022/03/02 12:52:14;;;;;;;8.95;5.72;;;9.80;1.00;;;;;;5045992;28;20433;-64
2022/03/02 12:54:44;;;;;;;8.68;5.10;;;9.70;1.00;;;;;;5052074;28;20437;-64
2022/03/02 12:57:13;;;;;;;9.25;5.65;;;9.50;1.00;;;;;;5046091;28;20886;-63
2022/03/02 12:59:40;;;;;;;5.05;4.20;;;9.30;1.00;;;;;;5050068;28;20468;-63
2022/03/02 13:02:10;;;;;;;7.35;4.63;;;9.30;1.00;;;;;;5049490;28;20523;-62
2022/03/02 13:04:46;;;;;;;6.45;4.43;;;9.30;1.00;;;;;;5049933;28;21008;-62
2022/03/02 13:07:17;;;;;;;6.22;4.95;;;9.30;1.00;;;;;;5051046;28;20437;-62
2022/03/02 13:09:50;;;;;;;5.30;3.85;;;9.30;1.00;;;;;;5049219;28;20459;-62
2022/03/02 13:12:32;;;;;;;6.93;4.60;;;9.10;1.00;;;;;;5048933;28;20444;-62
2022/03/02 13:15:01;;;;;;;7.03;3.53;;;8.90;1.00;;;;;;5049049;28;20645;-62
2022/03/02 13:17:29;;;;;;;4.75;3.50;;;9.00;1.00;;;;;;5043764;28;20483;-62